.
WxDataArchive / Data Records for 2016-03-22
2016-03-21 March 2016 2016-03-23

Data Records for Tuesday, 22 March 2016

Time	Temp	Chill	HIndex	Humid	Dewpt	 Wind 	HiWind	WindDir	Rain 	Barom
-----	----	-----	------	-----	-----	------	------	-------	-----	-----
00:00	36.0	36.0	36.0	64	25.0	0	0	---	0.00	30.056 
00:05	36.0	36.0	36.0	64	25.0	0	0	---	0.00	30.056 
00:10	36.0	36.0	36.0	64	25.0	0	0	---	0.00	30.056 
00:15	36.0	36.0	36.0	64	25.0	0	0	---	0.00	30.056 
00:20	35.9	35.9	35.9	65	25.3	0	0	---	0.00	30.056 
00:25	35.9	35.9	35.9	65	25.3	0	0	---	0.00	30.056 
00:30	35.9	35.9	35.9	65	25.3	0	0	---	0.00	30.055 
00:35	35.9	35.9	35.9	65	25.3	0	0	---	0.00	30.055 
00:40	35.9	35.9	35.9	65	25.3	0	0	---	0.00	30.055 
00:45	35.9	35.9	35.9	65	25.3	0	0	---	0.00	30.057 
00:50	35.9	35.9	35.9	65	25.3	0	0	---	0.00	30.057 
00:55	35.9	35.9	35.9	66	25.7	0	0	---	0.00	30.057 
01:00	35.8	35.8	35.8	66	25.6	0	0	---	0.00	30.057 
01:05	35.8	35.8	35.8	66	25.6	0	0	---	0.00	30.057 
01:10	35.6	35.6	35.6	66	25.4	0	0	---	0.00	30.057 
01:15	35.5	35.5	35.5	67	25.6	0	0	---	0.00	30.056 
01:20	35.5	35.5	35.5	67	25.6	0	0	---	0.00	30.056 
01:25	35.5	35.5	35.5	68	26.0	0	0	---	0.00	30.056 
01:30	35.3	35.3	35.3	68	25.8	0	0	---	0.00	30.054 
01:35	35.3	35.3	35.3	68	25.8	0	0	---	0.00	30.054 
01:40	35.3	35.3	35.3	68	25.8	0	0	---	0.00	30.054 
01:45	35.2	35.2	35.2	68	25.7	0	0	---	0.00	30.056 
01:50	35.0	35.0	35.0	69	25.9	0	0	---	0.00	30.056 
01:55	34.9	34.9	34.9	69	25.8	0	0	---	0.00	30.056 
02:00	34.9	34.9	34.9	69	25.8	0	0	---	0.00	30.055 
02:05	34.7	34.7	34.7	70	25.9	0	0	---	0.00	30.055 
02:10	34.6	34.6	34.6	70	25.8	0	0	---	0.00	30.055 
02:15	34.6	34.6	34.6	70	25.8	0	0	---	0.00	30.040 
02:20	34.6	34.6	34.6	71	26.2	0	0	---	0.00	30.040 
02:25	34.7	34.7	34.7	70	25.9	0	0	---	0.00	30.040 
02:30	34.7	34.7	34.7	70	25.9	0	0	---	0.00	30.039 
02:35	34.6	34.6	34.6	70	25.8	0	0	---	0.00	30.039 
02:40	34.4	34.4	34.4	71	26.0	0	0	---	0.00	30.039 
02:45	34.3	34.3	34.3	71	25.9	0	0	---	0.00	30.042 
02:50	34.3	34.3	34.3	71	25.9	0	0	---	0.00	30.042 
02:55	34.3	34.3	34.3	72	26.2	0	0	---	0.00	30.042 
03:00	34.4	34.4	34.4	72	26.3	0	0	---	0.00	30.041 
03:05	34.6	34.6	34.6	73	26.9	0	0	---	0.00	30.041 
03:10	34.6	34.6	34.6	73	26.9	0	0	---	0.00	30.041 
03:15	34.7	34.7	34.7	73	26.9	0	0	---	0.00	30.033 
03:20	35.0	35.0	35.0	73	27.2	0	0	---	0.00	30.033 
03:25	35.5	35.5	35.5	72	27.4	0	0	---	0.00	30.033 
03:30	35.8	35.8	35.8	71	27.3	0	1	292	0.00	30.023 
03:35	36.0	36.0	36.0	71	27.5	0	0	---	0.00	30.023 
03:40	36.2	36.2	36.2	71	27.7	0	0	---	0.00	30.023 
03:45	36.5	36.5	36.5	71	28.0	0	0	---	0.00	30.020 
03:50	36.6	36.6	36.6	71	28.1	0	0	---	0.00	30.020 
03:55	36.9	36.9	36.9	70	28.0	0	1	292	0.00	30.020 
04:00	37.2	37.2	37.2	70	28.3	0	1	292	0.00	30.004 
04:05	37.5	37.5	37.5	70	28.6	0	1	292	0.00	30.004 
04:10	37.8	37.8	37.8	69	28.6	0	1	292	0.00	30.004 
04:15	38.0	38.0	38.0	69	28.7	0	2	292	0.00	29.992 
04:20	38.3	38.3	38.3	68	28.7	0	3	45	0.00	29.992 
04:25	38.6	38.6	38.6	68	29.0	0	2	45	0.00	29.992 
04:30	38.9	38.9	38.9	67	28.9	0	6	292	0.00	29.988 
04:35	39.2	39.2	39.2	66	28.8	0	6	45	0.00	29.988 
04:40	39.3	39.3	39.3	66	28.9	0	1	45	0.00	29.988 
04:45	39.2	39.2	39.2	66	28.8	0	1	45	0.00	29.976 
04:50	39.1	39.1	39.1	67	29.1	0	3	45	0.00	29.976 
04:55	38.9	38.9	38.9	67	28.9	0	1	45	0.00	29.976 
05:00	38.9	38.9	38.9	67	28.9	0	3	45	0.00	29.970 
05:05	38.8	38.8	38.8	68	29.2	0	1	45	0.00	29.970 
05:10	38.8	38.8	38.8	68	29.2	0	3	45	0.00	29.970 
05:15	38.8	38.8	38.8	68	29.2	0	2	45	0.00	29.958 
05:20	38.9	38.9	38.9	68	29.3	0	1	45	0.00	29.958 
05:25	38.9	38.9	38.9	68	29.3	0	2	45	0.00	29.958 
05:30	39.1	39.1	39.1	68	29.4	0	3	68	0.00	29.957 
05:35	39.1	39.1	39.1	68	29.4	0	1	68	0.00	29.957 
05:40	39.1	39.1	39.1	68	29.4	0	2	68	0.00	29.957 
05:45	39.2	39.2	39.2	68	29.5	0	2	68	0.00	29.955 
05:50	39.3	39.3	39.3	68	29.6	0	2	68	0.00	29.955 
05:55	39.5	39.5	39.5	68	29.8	0	2	68	0.00	29.955 
06:00	39.6	39.6	39.6	67	29.6	0	4	68	0.00	29.945 
06:05	39.8	39.8	39.8	67	29.8	0	5	68	0.00	29.945 
06:10	39.9	39.9	39.9	66	29.5	0	2	90	0.00	29.945 
06:15	40.1	40.1	40.1	66	29.7	0	2	90	0.00	29.939 
06:20	40.1	40.1	40.1	66	29.7	0	1	90	0.00	29.939 
06:25	40.1	40.1	40.1	66	29.7	0	2	90	0.00	29.939 
06:30	40.1	40.1	40.1	66	29.7	0	4	248	0.00	29.937 
06:35	40.1	40.1	40.1	66	29.7	0	2	248	0.00	29.937 
06:40	40.1	40.1	40.1	66	29.7	0	1	248	0.00	29.937 
06:45	40.1	40.1	40.1	67	30.0	0	2	248	0.00	29.933 
06:50	40.1	40.1	40.1	67	30.0	0	2	248	0.00	29.933 
06:55	39.9	39.9	39.9	67	29.8	0	3	248	0.00	29.933 
07:00	39.9	39.9	39.9	66	29.5	0	2	248	0.00	29.929 
07:05	40.1	40.1	40.1	66	29.7	0	3	248	0.00	29.929 
07:10	39.9	39.9	39.9	66	29.5	0	3	248	0.00	29.929 
07:15	39.9	39.9	39.9	66	29.5	0	2	248	0.00	29.926 
07:20	39.8	39.8	39.8	66	29.4	0	2	248	0.00	29.926 
07:25	39.8	39.8	39.8	66	29.4	0	2	248	0.00	29.926 
07:30	39.8	39.8	39.8	67	29.8	0	2	248	0.00	29.923 
07:35	39.8	39.8	39.8	66	29.4	1	2	248	0.00	29.923 
07:40	39.8	39.8	39.8	66	29.4	0	2	248	0.00	29.923 
07:45	39.8	39.8	39.8	66	29.4	0	3	248	0.00	29.923 
07:50	39.9	39.9	39.9	66	29.5	0	2	248	0.00	29.923 
07:55	39.9	39.9	39.9	66	29.5	0	4	248	0.00	29.923 
08:00	40.1	40.1	40.1	66	29.7	1	2	248	0.00	29.924 
08:05	40.3	40.3	40.3	65	29.5	1	3	248	0.00	29.924 
08:10	40.5	40.5	40.5	65	29.7	0	2	248	0.00	29.924 
08:15	40.6	40.6	40.6	65	29.8	1	5	248	0.00	29.922 
08:20	40.9	40.9	40.9	64	29.7	1	3	248	0.00	29.922 
08:25	41.2	41.2	41.2	64	30.0	1	4	225	0.00	29.922 
08:30	41.5	41.5	41.5	63	29.9	1	3	248	0.00	29.921 
08:35	41.8	41.8	41.8	63	30.1	1	2	248	0.00	29.921 
08:40	42.1	42.1	42.1	62	30.0	1	3	225	0.00	29.921 
08:45	42.3	42.3	42.3	62	30.2	0	3	292	0.00	29.912 
08:50	42.5	42.5	42.5	61	30.0	0	3	292	0.00	29.912 
08:55	42.6	42.6	42.6	61	30.1	1	4	270	0.00	29.912 
09:00	42.8	42.8	42.8	61	30.3	0	3	248	0.00	29.911 
09:05	42.9	42.9	42.9	61	30.4	1	3	248	0.00	29.911 
09:10	43.1	43.1	43.1	60	30.2	1	3	248	0.00	29.911 
09:15	43.2	43.2	43.2	60	30.3	0	2	248	0.00	29.909 
09:20	43.3	43.3	43.3	60	30.4	1	3	248	0.00	29.909 
09:25	43.6	43.6	43.6	59	30.2	1	5	90	0.00	29.909 
09:30	44.1	44.1	44.1	59	30.7	1	4	248	0.00	29.898 
09:35	44.5	44.5	44.5	57	30.2	1	6	248	0.00	29.898 
09:40	44.9	44.9	44.9	57	30.6	1	3	248	0.00	29.898 
09:45	45.5	45.5	45.5	56	30.7	1	3	270	0.00	29.894 
09:50	46.0	46.0	46.0	55	30.7	2	4	248	0.00	29.894 
09:55	46.5	46.5	46.5	54	30.8	1	4	248	0.00	29.894 
10:00	47.0	47.0	47.0	53	30.8	1	5	248	0.00	29.890 
10:05	47.4	47.4	47.4	53	31.1	1	4	248	0.00	29.890 
10:10	47.9	47.9	47.9	52	31.1	1	5	248	0.00	29.890 
10:15	47.9	47.9	47.9	52	31.1	1	6	248	0.00	29.890 
10:20	48.2	48.2	48.2	51	30.9	1	5	248	0.00	29.890 
10:25	48.6	48.6	48.6	51	31.3	2	6	248	0.00	29.890 
10:30	48.8	48.8	48.8	50	31.0	2	6	248	0.00	29.891 
10:35	48.9	48.9	48.9	50	31.1	2	6	270	0.00	29.891 
10:40	49.4	49.4	49.4	49	31.0	2	6	248	0.00	29.891 
10:45	49.6	49.6	49.6	49	31.2	2	7	248	0.00	29.880 
10:50	49.9	49.9	49.9	48	31.0	2	7	248	0.00	29.880 
10:55	50.4	50.4	50.4	49	32.0	2	4	248	0.00	29.880 
11:00	50.7	50.7	50.7	47	31.2	2	7	248	0.00	29.874 
11:05	51.1	51.1	51.1	49	32.6	1	4	248	0.00	29.874 
11:10	51.7	51.7	51.7	46	31.6	2	7	248	0.00	29.874 
11:15	52.0	52.0	52.0	48	32.9	2	6	315	0.00	29.869 
11:20	52.5	52.5	52.5	48	33.4	2	9	270	0.00	29.869 
11:25	52.9	52.9	52.9	45	32.1	2	7	270	0.00	29.869 
11:30	53.2	53.2	53.2	46	33.0	2	5	270	0.00	29.866 
11:35	53.5	53.5	53.5	45	32.7	2	6	270	0.00	29.866 
11:40	53.6	53.6	53.6	44	32.2	2	5	270	0.00	29.866 
11:45	53.9	53.9	53.9	45	33.1	2	6	248	0.00	29.864 
11:50	54.2	54.2	54.2	46	33.9	2	5	270	0.00	29.864 
11:55	55.0	55.0	55.0	44	33.5	2	5	90	0.00	29.864 
12:00	55.6	55.6	55.6	46	35.2	1	5	22	0.00	29.858 
12:05	55.7	55.7	55.7	44	34.1	2	6	248	0.00	29.858 
12:10	55.7	55.7	55.7	42	33.0	2	6	248	0.00	29.858 
12:15	55.9	55.9	55.9	42	33.1	3	10	270	0.00	29.851 
12:20	56.0	56.0	56.0	43	33.8	2	7	248	0.00	29.851 
12:25	56.6	56.6	56.6	43	34.4	2	7	270	0.00	29.851 
12:30	57.0	57.0	57.0	42	34.1	2	5	248	0.00	29.841 
12:35	57.6	57.6	57.6	42	34.7	2	6	248	0.00	29.841 
12:40	57.8	57.8	57.8	43	35.5	3	10	248	0.00	29.841 
12:45	57.6	57.6	57.6	39	32.8	2	9	248	0.00	29.834 
12:50	57.5	57.5	57.5	41	34.0	2	5	248	0.00	29.834 
12:55	58.0	58.0	58.0	42	35.0	2	10	248	0.00	29.834 
13:00	58.3	58.3	58.3	42	35.3	2	6	248	0.00	29.834 
13:05	58.3	58.3	58.3	39	33.5	3	9	248	0.00	29.834 
13:10	58.3	58.3	58.3	41	34.7	2	6	248	0.00	29.834 
13:15	58.6	58.6	58.6	43	36.2	2	6	248	0.00	29.826 
13:20	58.7	58.7	58.7	41	35.1	2	5	270	0.00	29.826 
13:25	58.7	58.7	58.7	39	33.8	2	7	248	0.00	29.826 
13:30	59.0	59.0	59.0	41	35.3	2	5	248	0.00	29.821 
13:35	59.2	59.2	59.2	39	34.3	2	6	248	0.00	29.821 
13:40	59.6	59.6	59.6	39	34.6	1	3	248	0.00	29.821 
13:45	59.9	59.9	59.9	42	36.8	2	5	270	0.00	29.807 
13:50	59.9	59.9	59.9	39	34.9	2	7	248	0.00	29.807 
13:55	59.9	59.9	59.9	40	35.5	2	6	248	0.00	29.807 
14:00	60.2	60.2	60.2	41	36.4	2	7	90	0.00	29.792 
14:05	60.5	60.5	60.5	43	37.9	1	5	68	0.00	29.792 
14:10	60.9	60.9	60.9	40	36.4	1	7	248	0.00	29.792 
14:15	60.7	60.7	60.7	37	34.3	3	10	248	0.00	29.786 
14:20	60.5	60.5	60.5	39	35.4	2	5	270	0.00	29.786 
14:25	60.7	60.7	60.7	38	34.9	2	4	248	0.00	29.786 
14:30	61.0	61.0	61.0	37	34.5	2	9	270	0.00	29.775 
14:35	60.5	60.5	60.5	38	34.8	1	6	270	0.00	29.775 
14:40	60.4	60.4	60.4	39	35.3	2	4	315	0.00	29.775 
14:45	60.4	60.4	60.4	39	35.3	2	5	248	0.00	29.771 
14:50	60.9	60.9	60.9	39	35.8	1	5	90	0.00	29.771 
14:55	61.6	61.6	61.6	39	36.4	1	5	248	0.00	29.771 
15:00	61.6	61.6	61.6	35	33.7	3	10	248	0.00	29.759 
15:05	61.5	61.5	61.5	39	36.3	2	10	45	0.00	29.759 
15:10	61.5	61.5	61.5	37	35.0	2	5	270	0.00	29.759 
15:15	62.0	62.0	62.0	36	34.7	3	10	248	0.00	29.743 
15:20	62.1	62.1	62.1	38	36.2	2	7	248	0.00	29.743 
15:25	62.4	62.4	62.4	36	35.1	2	11	45	0.00	29.743 
15:30	62.0	62.0	62.0	36	34.7	3	9	248	0.00	29.733 
15:35	62.0	62.0	62.0	37	35.4	2	10	248	0.00	29.733 
15:40	62.1	62.1	62.1	35	34.1	2	10	248	0.00	29.733 
15:45	61.8	61.8	61.8	36	34.6	3	14	270	0.00	29.727 
15:50	62.0	62.0	62.0	35	34.0	3	10	248	0.00	29.727 
15:55	62.0	62.0	62.0	35	34.0	3	10	248	0.00	29.727 
16:00	62.0	62.0	62.0	36	34.7	1	7	248	0.00	29.712 
16:05	62.1	62.1	62.1	36	34.8	2	9	270	0.00	29.712 
16:10	62.1	62.1	62.1	40	37.5	2	11	112	0.00	29.712 
16:15	62.0	62.0	62.0	39	36.8	2	9	68	0.00	29.714 
16:20	61.8	61.8	61.8	39	36.6	2	11	90	0.00	29.714 
16:25	61.8	61.8	61.8	37	35.3	2	7	248	0.00	29.714 
16:30	62.0	62.0	62.0	36	34.7	3	7	248	0.00	29.712 
16:35	62.0	62.0	62.0	35	34.0	3	7	248	0.00	29.712 
16:40	61.8	61.8	61.8	35	33.9	3	11	248	0.00	29.712 
16:45	61.6	61.6	61.6	38	35.7	3	7	90	0.00	29.707 
16:50	61.5	61.5	61.5	39	36.3	2	9	135	0.00	29.707 
16:55	61.3	61.3	61.3	38	35.5	2	7	248	0.00	29.707 
17:00	61.5	61.5	61.5	38	35.7	3	7	90	0.00	29.701 
17:05	61.5	61.5	61.5	39	36.3	2	6	90	0.00	29.701 
17:10	61.8	61.8	61.8	39	36.6	2	4	225	0.00	29.701 
17:15	62.1	62.1	62.1	36	34.8	3	9	248	0.00	29.701 
17:20	62.3	62.3	62.3	38	36.4	1	5	248	0.00	29.701 
17:25	62.6	62.6	62.6	37	36.0	1	10	45	0.00	29.701 
17:30	62.9	62.9	62.9	37	36.2	1	7	248	0.00	29.681 
17:35	63.1	63.1	63.1	38	37.1	1	3	270	0.00	29.681 
17:40	63.1	63.1	63.1	37	36.4	2	6	90	0.00	29.681 
17:45	63.2	63.2	63.2	35	35.1	2	11	248	0.00	29.673 
17:50	63.5	63.5	63.5	35	35.4	3	13	248	0.00	29.673 
17:55	63.9	63.9	63.9	34	35.0	2	9	248	0.00	29.673 
18:00	64.0	64.0	64.0	34	35.1	3	9	270	0.00	29.673 
18:05	64.2	64.2	64.2	34	35.2	2	5	248	0.00	29.673 
18:10	64.5	64.5	64.5	33	34.8	2	9	248	0.00	29.673 
18:15	64.7	64.7	64.7	34	35.7	2	5	248	0.00	29.672 
18:20	64.3	64.3	64.3	34	35.3	2	6	270	0.00	29.672 
18:25	64.0	64.0	64.0	35	35.8	1	4	270	0.00	29.672 
18:30	63.9	63.9	63.9	35	35.7	1	4	248	0.00	29.672 
18:35	63.7	63.7	63.7	35	35.5	1	3	270	0.00	29.672 
18:40	63.7	63.7	63.7	36	36.2	1	6	270	0.00	29.672 
18:45	63.5	63.5	63.5	35	35.4	1	4	270	0.00	29.678 
18:50	63.5	63.5	63.5	35	35.4	2	7	270	0.00	29.678 
18:55	63.5	63.5	63.5	35	35.4	2	7	248	0.00	29.678 
19:00	63.4	63.4	63.4	35	35.3	1	4	225	0.00	29.688 
19:05	63.4	63.4	63.4	34	34.5	3	10	248	0.00	29.688 
19:10	63.4	63.4	63.4	34	34.5	2	7	248	0.00	29.688 
19:15	63.2	63.2	63.2	35	35.1	0	2	248	0.00	29.688 
19:20	63.1	63.1	63.1	35	35.0	2	9	248	0.00	29.688 
19:25	62.7	62.7	62.7	35	34.7	1	5	248	0.00	29.688 
19:30	62.7	62.7	62.7	35	34.7	1	5	248	0.00	29.689 
19:35	62.4	62.4	62.4	35	34.4	2	10	248	0.00	29.689 
19:40	62.4	62.4	62.4	35	34.4	1	5	248	0.00	29.689 
19:45	62.3	62.3	62.3	35	34.3	1	5	248	0.00	29.695 
19:50	62.0	62.0	62.0	36	34.7	1	4	248	0.00	29.695 
19:55	61.8	61.8	61.8	36	34.6	1	5	248	0.00	29.695 
20:00	61.8	61.8	61.8	37	35.3	1	4	248	0.00	29.698 
20:05	61.6	61.6	61.6	36	34.4	1	6	248	0.00	29.698 
20:10	61.6	61.6	61.6	37	35.1	1	5	68	0.00	29.698 
20:15	61.5	61.5	61.5	37	35.0	1	4	225	0.00	29.703 
20:20	61.3	61.3	61.3	37	34.8	1	5	248	0.00	29.703 
20:25	61.3	61.3	61.3	37	34.8	1	5	248	0.00	29.703 
20:30	61.2	61.2	61.2	37	34.7	1	3	248	0.00	29.706 
20:35	61.0	61.0	61.0	37	34.5	1	3	248	0.00	29.706 
20:40	60.9	60.9	60.9	37	34.5	1	3	248	0.00	29.706 
20:45	60.9	60.9	60.9	37	34.5	1	4	248	0.00	29.711 
20:50	60.9	60.9	60.9	37	34.5	1	5	248	0.00	29.711 
20:55	60.9	60.9	60.9	37	34.5	1	4	248	0.00	29.711 
21:00	60.7	60.7	60.7	37	34.3	0	3	248	0.00	29.720 
21:05	60.5	60.5	60.5	37	34.1	0	2	248	0.00	29.720 
21:10	60.4	60.4	60.4	38	34.7	0	3	248	0.00	29.720 
21:15	60.4	60.4	60.4	38	34.7	1	2	248	0.00	29.726 
21:20	60.2	60.2	60.2	38	34.5	1	3	248	0.00	29.726 
21:25	60.2	60.2	60.2	38	34.5	1	4	248	0.00	29.726 
21:30	60.2	60.2	60.2	38	34.5	0	5	248	0.00	29.733 
21:35	60.1	60.1	60.1	38	34.4	0	3	248	0.00	29.733 
21:40	59.9	59.9	59.9	39	34.9	0	1	248	0.00	29.733 
21:45	59.8	59.8	59.8	39	34.8	0	2	248	0.00	29.736 
21:50	59.6	59.6	59.6	40	35.3	0	2	248	0.00	29.736 
21:55	59.3	59.3	59.3	40	35.0	0	1	248	0.00	29.736 
22:00	59.2	59.2	59.2	41	35.5	0	2	248	0.00	29.738 
22:05	59.0	59.0	59.0	41	35.3	0	1	248	0.00	29.738 
22:10	58.9	58.9	58.9	41	35.2	0	1	248	0.00	29.738 
22:15	58.7	58.7	58.7	42	35.7	0	1	248	0.00	29.735 
22:20	58.4	58.4	58.4	42	35.4	0	2	248	0.00	29.735 
22:25	58.3	58.3	58.3	41	34.7	0	1	248	0.00	29.735 
22:30	58.3	58.3	58.3	42	35.3	0	1	248	0.00	29.738 
22:35	58.1	58.1	58.1	42	35.1	0	2	248	0.00	29.738 
22:40	58.0	58.0	58.0	42	35.0	0	1	248	0.00	29.738 
22:45	57.8	57.8	57.8	42	34.9	0	1	248	0.00	29.742 
22:50	57.6	57.6	57.6	42	34.7	0	1	248	0.00	29.742 
22:55	57.5	57.5	57.5	43	35.2	0	1	248	0.00	29.742 
23:00	57.2	57.2	57.2	43	34.9	0	0	---	0.00	29.741 
23:05	56.9	56.9	56.9	44	35.2	0	0	---	0.00	29.741 
23:10	56.6	56.6	56.6	44	34.9	0	0	---	0.00	29.741 
23:15	56.5	56.5	56.5	45	35.4	0	0	---	0.00	29.739 
23:20	56.3	56.3	56.3	45	35.2	0	0	---	0.00	29.739 
23:25	56.0	56.0	56.0	46	35.5	0	0	---	0.00	29.739 
23:30	55.9	55.9	55.9	46	35.4	0	1	248	0.00	29.741 
23:35	55.6	55.6	55.6	46	35.2	0	0	---	0.00	29.741 
23:40	55.4	55.4	55.4	47	35.5	0	0	---	0.00	29.741 
23:45	55.1	55.1	55.1	47	35.2	0	0	---	0.00	29.743 
23:50	55.0	55.0	55.0	47	35.1	0	0	---	0.00	29.743 
23:55	54.8	54.8	54.8	48	35.5	0	0	---	0.00	29.743 

CoCoRaHS
IN-AL-39
A2 Web Hosting
Creative Commons License
GoDaddy
search engine by freefind advanced

loaded 2018-11-21 00:30:39 • last modified 2010-11-18 10:43:29
Privacy PolicyDisclaimer
• wx.awcolley.com is powered by PmWiki v.2002016 •
• all content (unless otherwise noted) © 2018 A W Colley